sensor_id;sensor_type;location;lat;lon;timestamp;P1;durP1;ratioP1;P2;durP2;ratioP2
15246;SDS011;7726;48.820;9.248;2023-03-17T00:00:46;3.50;;;3.20;;
15246;SDS011;7726;48.820;9.248;2023-03-17T00:03:18;3.50;;;3.20;;
15246;SDS011;7726;48.820;9.248;2023-03-17T00:05:45;4.33;;;3.60;;
15246;SDS011;7726;48.820;9.248;2023-03-17T00:08:14;5.10;;;3.80;;
15246;SDS011;7726;48.820;9.248;2023-03-17T00:10:44;7.57;;;4.13;;
15246;SDS011;7726;48.820;9.248;2023-03-17T00:13:11;5.53;;;4.00;;
15246;SDS011;7726;48.820;9.248;2023-03-17T00:15:39;4.10;;;3.67;;
15246;SDS011;7726;48.820;9.248;2023-03-17T00:18:09;4.03;;;3.47;;
15246;SDS011;7726;48.820;9.248;2023-03-17T00:20:38;5.50;;;3.73;;
15246;SDS011;7726;48.820;9.248;2023-03-17T00:23:07;4.57;;;3.60;;
15246;SDS011;7726;48.820;9.248;2023-03-17T00:25:38;4.73;;;3.50;;
15246;SDS011;7726;48.820;9.248;2023-03-17T00:28:08;3.40;;;2.90;;
15246;SDS011;7726;48.820;9.248;2023-03-17T00:30:36;3.93;;;3.30;;
15246;SDS011;7726;48.820;9.248;2023-03-17T00:33:04;3.40;;;3.10;;
15246;SDS011;7726;48.820;9.248;2023-03-17T00:35:31;5.33;;;3.90;;
15246;SDS011;7726;48.820;9.248;2023-03-17T00:38:00;6.00;;;5.50;;
15246;SDS011;7726;48.820;9.248;2023-03-17T00:40:28;5.47;;;4.50;;
15246;SDS011;7726;48.820;9.248;2023-03-17T00:42:57;4.50;;;3.33;;
15246;SDS011;7726;48.820;9.248;2023-03-17T00:45:25;6.43;;;3.87;;
15246;SDS011;7726;48.820;9.248;2023-03-17T00:47:52;4.63;;;3.00;;
15246;SDS011;7726;48.820;9.248;2023-03-17T00:50:21;3.27;;;2.73;;
15246;SDS011;7726;48.820;9.248;2023-03-17T00:52:50;3.57;;;3.27;;
15246;SDS011;7726;48.820;9.248;2023-03-17T00:55:19;3.20;;;2.90;;
15246;SDS011;7726;48.820;9.248;2023-03-17T00:57:46;3.80;;;3.23;;
15246;SDS011;7726;48.820;9.248;2023-03-17T01:00:19;4.20;;;3.17;;
15246;SDS011;7726;48.820;9.248;2023-03-17T01:02:47;3.30;;;2.83;;
15246;SDS011;7726;48.820;9.248;2023-03-17T01:05:14;4.33;;;3.03;;
15246;SDS011;7726;48.820;9.248;2023-03-17T01:07:42;4.00;;;3.30;;
15246;SDS011;7726;48.820;9.248;2023-03-17T01:10:13;3.30;;;3.00;;
15246;SDS011;7726;48.820;9.248;2023-03-17T01:12:42;4.33;;;3.17;;
15246;SDS011;7726;48.820;9.248;2023-03-17T01:15:09;3.93;;;3.30;;
15246;SDS011;7726;48.820;9.248;2023-03-17T01:17:37;4.37;;;2.93;;
15246;SDS011;7726;48.820;9.248;2023-03-17T01:20:04;3.63;;;3.27;;
15246;SDS011;7726;48.820;9.248;2023-03-17T01:22:32;3.63;;;3.33;;
15246;SDS011;7726;48.820;9.248;2023-03-17T01:24:59;4.23;;;3.67;;
15246;SDS011;7726;48.820;9.248;2023-03-17T01:27:27;5.70;;;4.57;;
15246;SDS011;7726;48.820;9.248;2023-03-17T01:29:55;6.57;;;4.33;;
15246;SDS011;7726;48.820;9.248;2023-03-17T01:32:22;4.77;;;4.23;;
15246;SDS011;7726;48.820;9.248;2023-03-17T01:34:49;4.93;;;4.43;;
15246;SDS011;7726;48.820;9.248;2023-03-17T01:37:17;6.57;;;5.17;;
15246;SDS011;7726;48.820;9.248;2023-03-17T01:39:45;5.23;;;4.73;;
15246;SDS011;7726;48.820;9.248;2023-03-17T01:42:12;6.73;;;4.83;;
15246;SDS011;7726;48.820;9.248;2023-03-17T01:47:33;7.23;;;5.23;;
15246;SDS011;7726;48.820;9.248;2023-03-17T01:50:02;5.13;;;4.63;;
15246;SDS011;7726;48.820;9.248;2023-03-17T01:52:32;6.90;;;5.10;;
15246;SDS011;7726;48.820;9.248;2023-03-17T01:55:01;5.70;;;4.60;;
15246;SDS011;7726;48.820;9.248;2023-03-17T01:57:30;6.90;;;5.00;;
15246;SDS011;7726;48.820;9.248;2023-03-17T02:00:03;5.20;;;4.70;;
15246;SDS011;7726;48.820;9.248;2023-03-17T02:02:31;5.50;;;5.00;;
15246;SDS011;7726;48.820;9.248;2023-03-17T02:05:01;5.03;;;4.57;;
15246;SDS011;7726;48.820;9.248;2023-03-17T02:07:28;6.73;;;5.23;;
15246;SDS011;7726;48.820;9.248;2023-03-17T02:09:57;6.20;;;4.67;;
15246;SDS011;7726;48.820;9.248;2023-03-17T02:12:24;5.50;;;5.00;;
15246;SDS011;7726;48.820;9.248;2023-03-17T02:14:53;5.90;;;5.10;;
15246;SDS011;7726;48.820;9.248;2023-03-17T02:17:20;6.23;;;5.10;;
15246;SDS011;7726;48.820;9.248;2023-03-17T02:19:48;6.23;;;4.97;;
15246;SDS011;7726;48.820;9.248;2023-03-17T02:22:17;6.37;;;4.93;;
15246;SDS011;7726;48.820;9.248;2023-03-17T02:24:45;5.37;;;4.87;;
15246;SDS011;7726;48.820;9.248;2023-03-17T02:27:15;5.53;;;4.70;;
15246;SDS011;7726;48.820;9.248;2023-03-17T02:29:43;5.37;;;4.87;;
15246;SDS011;7726;48.820;9.248;2023-03-17T02:32:11;6.87;;;4.50;;
15246;SDS011;7726;48.820;9.248;2023-03-17T02:34:38;8.40;;;4.40;;
15246;SDS011;7726;48.820;9.248;2023-03-17T02:37:06;6.33;;;4.63;;
15246;SDS011;7726;48.820;9.248;2023-03-17T02:39:34;4.97;;;4.20;;
15246;SDS011;7726;48.820;9.248;2023-03-17T02:42:02;5.07;;;4.50;;
15246;SDS011;7726;48.820;9.248;2023-03-17T02:44:29;5.00;;;4.50;;
15246;SDS011;7726;48.820;9.248;2023-03-17T02:46:57;5.40;;;4.60;;
15246;SDS011;7726;48.820;9.248;2023-03-17T02:49:24;5.57;;;4.37;;
15246;SDS011;7726;48.820;9.248;2023-03-17T02:51:52;5.43;;;4.77;;
15246;SDS011;7726;48.820;9.248;2023-03-17T02:54:20;5.87;;;4.50;;
15246;SDS011;7726;48.820;9.248;2023-03-17T02:56:48;4.97;;;4.57;;
15246;SDS011;7726;48.820;9.248;2023-03-17T02:59:15;4.87;;;4.07;;
15246;SDS011;7726;48.820;9.248;2023-03-17T03:01:42;6.70;;;4.37;;
15246;SDS011;7726;48.820;9.248;2023-03-17T03:04:12;5.20;;;4.70;;
15246;SDS011;7726;48.820;9.248;2023-03-17T03:06:39;4.43;;;3.83;;
15246;SDS011;7726;48.820;9.248;2023-03-17T03:09:08;5.40;;;4.30;;
15246;SDS011;7726;48.820;9.248;2023-03-17T03:11:36;5.70;;;3.90;;
15246;SDS011;7726;48.820;9.248;2023-03-17T03:14:04;6.07;;;4.47;;
15246;SDS011;7726;48.820;9.248;2023-03-17T03:16:32;5.50;;;4.10;;
15246;SDS011;7726;48.820;9.248;2023-03-17T03:18:59;4.23;;;3.83;;
15246;SDS011;7726;48.820;9.248;2023-03-17T03:21:26;4.10;;;3.70;;
15246;SDS011;7726;48.820;9.248;2023-03-17T03:23:54;4.77;;;3.93;;
15246;SDS011;7726;48.820;9.248;2023-03-17T03:26:21;6.43;;;4.30;;
15246;SDS011;7726;48.820;9.248;2023-03-17T03:28:48;4.40;;;3.83;;
15246;SDS011;7726;48.820;9.248;2023-03-17T03:31:17;5.20;;;4.50;;
15246;SDS011;7726;48.820;9.248;2023-03-17T03:33:44;5.60;;;4.37;;
15246;SDS011;7726;48.820;9.248;2023-03-17T03:36:12;6.13;;;3.93;;
15246;SDS011;7726;48.820;9.248;2023-03-17T03:38:39;7.00;;;4.37;;
15246;SDS011;7726;48.820;9.248;2023-03-17T03:41:06;4.13;;;3.73;;
15246;SDS011;7726;48.820;9.248;2023-03-17T03:43:33;4.87;;;4.03;;
15246;SDS011;7726;48.820;9.248;2023-03-17T03:46:01;4.83;;;4.10;;
15246;SDS011;7726;48.820;9.248;2023-03-17T03:48:29;4.53;;;3.60;;
15246;SDS011;7726;48.820;9.248;2023-03-17T03:50:57;4.37;;;3.90;;
15246;SDS011;7726;48.820;9.248;2023-03-17T03:53:25;4.63;;;4.10;;
15246;SDS011;7726;48.820;9.248;2023-03-17T03:55:52;7.40;;;4.07;;
15246;SDS011;7726;48.820;9.248;2023-03-17T03:58:20;4.40;;;4.00;;
15246;SDS011;7726;48.820;9.248;2023-03-17T04:00:47;4.33;;;3.93;;
15246;SDS011;7726;48.820;9.248;2023-03-17T04:03:14;6.27;;;4.40;;
15246;SDS011;7726;48.820;9.248;2023-03-17T04:05:43;4.50;;;3.90;;
15246;SDS011;7726;48.820;9.248;2023-03-17T04:08:10;5.47;;;3.77;;
15246;SDS011;7726;48.820;9.248;2023-03-17T04:10:37;4.40;;;4.00;;
15246;SDS011;7726;48.820;9.248;2023-03-17T04:13:04;4.50;;;3.87;;
15246;SDS011;7726;48.820;9.248;2023-03-17T04:15:32;4.40;;;4.00;;
15246;SDS011;7726;48.820;9.248;2023-03-17T04:17:59;4.33;;;3.93;;
15246;SDS011;7726;48.820;9.248;2023-03-17T04:20:26;7.20;;;4.60;;
15246;SDS011;7726;48.820;9.248;2023-03-17T04:22:55;4.40;;;4.00;;
15246;SDS011;7726;48.820;9.248;2023-03-17T04:25:22;7.20;;;4.43;;
15246;SDS011;7726;48.820;9.248;2023-03-17T04:27:50;4.97;;;4.07;;
15246;SDS011;7726;48.820;9.248;2023-03-17T04:30:17;4.97;;;4.20;;
15246;SDS011;7726;48.820;9.248;2023-03-17T04:32:44;5.83;;;4.13;;
15246;SDS011;7726;48.820;9.248;2023-03-17T04:35:12;4.50;;;4.10;;
15246;SDS011;7726;48.820;9.248;2023-03-17T04:37:39;4.70;;;4.23;;
15246;SDS011;7726;48.820;9.248;2023-03-17T04:40:09;5.27;;;4.50;;
15246;SDS011;7726;48.820;9.248;2023-03-17T04:42:37;4.93;;;4.43;;
15246;SDS011;7726;48.820;9.248;2023-03-17T04:45:05;5.83;;;4.60;;
15246;SDS011;7726;48.820;9.248;2023-03-17T04:47:33;4.93;;;4.43;;
15246;SDS011;7726;48.820;9.248;2023-03-17T04:50:00;5.20;;;4.47;;
15246;SDS011;7726;48.820;9.248;2023-03-17T04:52:28;4.50;;;4.10;;
15246;SDS011;7726;48.820;9.248;2023-03-17T04:54:55;4.73;;;4.20;;
15246;SDS011;7726;48.820;9.248;2023-03-17T04:57:23;5.87;;;4.10;;
15246;SDS011;7726;48.820;9.248;2023-03-17T04:59:51;5.27;;;4.10;;
15246;SDS011;7726;48.820;9.248;2023-03-17T05:02:18;6.73;;;4.20;;
15246;SDS011;7726;48.820;9.248;2023-03-17T05:04:45;5.53;;;4.37;;
15246;SDS011;7726;48.820;9.248;2023-03-17T05:07:12;8.27;;;4.70;;
15246;SDS011;7726;48.820;9.248;2023-03-17T05:09:40;4.80;;;4.40;;
15246;SDS011;7726;48.820;9.248;2023-03-17T05:12:07;6.40;;;4.47;;
15246;SDS011;7726;48.820;9.248;2023-03-17T05:14:36;5.90;;;4.47;;
15246;SDS011;7726;48.820;9.248;2023-03-17T05:17:03;5.93;;;4.40;;
15246;SDS011;7726;48.820;9.248;2023-03-17T05:19:31;7.20;;;4.77;;
15246;SDS011;7726;48.820;9.248;2023-03-17T05:21:58;5.47;;;4.00;;
15246;SDS011;7726;48.820;9.248;2023-03-17T05:24:25;7.13;;;4.40;;
15246;SDS011;7726;48.820;9.248;2023-03-17T05:26:52;5.33;;;4.83;;
15246;SDS011;7726;48.820;9.248;2023-03-17T05:29:19;5.73;;;4.37;;
15246;SDS011;7726;48.820;9.248;2023-03-17T05:31:48;6.70;;;4.90;;
15246;SDS011;7726;48.820;9.248;2023-03-17T05:34:15;6.00;;;4.80;;
15246;SDS011;7726;48.820;9.248;2023-03-17T05:36:42;5.60;;;5.03;;
15246;SDS011;7726;48.820;9.248;2023-03-17T05:39:10;5.90;;;5.30;;
15246;SDS011;7726;48.820;9.248;2023-03-17T05:41:38;5.27;;;4.77;;
15246;SDS011;7726;48.820;9.248;2023-03-17T05:44:05;6.67;;;5.17;;
15246;SDS011;7726;48.820;9.248;2023-03-17T05:46:32;6.60;;;5.57;;
15246;SDS011;7726;48.820;9.248;2023-03-17T05:49:01;6.40;;;5.47;;
15246;SDS011;7726;48.820;9.248;2023-03-17T05:51:28;7.50;;;5.60;;
15246;SDS011;7726;48.820;9.248;2023-03-17T05:53:56;7.40;;;5.80;;
15246;SDS011;7726;48.820;9.248;2023-03-17T05:56:23;8.27;;;5.83;;
15246;SDS011;7726;48.820;9.248;2023-03-17T05:58:50;7.03;;;5.70;;
15246;SDS011;7726;48.820;9.248;2023-03-17T06:01:18;6.50;;;5.80;;
15246;SDS011;7726;48.820;9.248;2023-03-17T06:03:45;8.57;;;6.07;;
15246;SDS011;7726;48.820;9.248;2023-03-17T06:06:15;8.00;;;5.77;;
15246;SDS011;7726;48.820;9.248;2023-03-17T06:08:42;8.43;;;5.53;;
15246;SDS011;7726;48.820;9.248;2023-03-17T06:11:09;7.27;;;5.70;;
15246;SDS011;7726;48.820;9.248;2023-03-17T06:13:37;11.57;;;5.67;;
15246;SDS011;7726;48.820;9.248;2023-03-17T06:16:04;8.90;;;5.50;;
15246;SDS011;7726;48.820;9.248;2023-03-17T06:18:31;6.30;;;5.53;;
15246;SDS011;7726;48.820;9.248;2023-03-17T06:20:59;6.70;;;5.63;;
15246;SDS011;7726;48.820;9.248;2023-03-17T06:23:28;6.63;;;5.37;;
15246;SDS011;7726;48.820;9.248;2023-03-17T06:25:55;8.57;;;5.90;;
15246;SDS011;7726;48.820;9.248;2023-03-17T06:28:22;6.97;;;5.70;;
15246;SDS011;7726;48.820;9.248;2023-03-17T06:30:49;5.90;;;5.23;;
15246;SDS011;7726;48.820;9.248;2023-03-17T06:33:17;9.43;;;5.80;;
15246;SDS011;7726;48.820;9.248;2023-03-17T06:35:44;8.30;;;6.20;;
15246;SDS011;7726;48.820;9.248;2023-03-17T06:38:11;7.10;;;6.23;;
15246;SDS011;7726;48.820;9.248;2023-03-17T06:40:40;8.27;;;6.50;;
15246;SDS011;7726;48.820;9.248;2023-03-17T06:43:07;7.57;;;5.93;;
15246;SDS011;7726;48.820;9.248;2023-03-17T06:45:34;12.07;;;6.53;;
15246;SDS011;7726;48.820;9.248;2023-03-17T06:48:01;11.07;;;5.83;;
15246;SDS011;7726;48.820;9.248;2023-03-17T06:50:28;6.97;;;5.60;;
15246;SDS011;7726;48.820;9.248;2023-03-17T06:52:56;6.40;;;5.10;;
15246;SDS011;7726;48.820;9.248;2023-03-17T06:55:23;7.90;;;5.53;;
15246;SDS011;7726;48.820;9.248;2023-03-17T06:57:52;9.67;;;5.43;;
15246;SDS011;7726;48.820;9.248;2023-03-17T07:00:20;7.67;;;5.47;;
15246;SDS011;7726;48.820;9.248;2023-03-17T07:02:47;11.43;;;5.70;;
15246;SDS011;7726;48.820;9.248;2023-03-17T07:05:15;6.93;;;4.83;;
15246;SDS011;7726;48.820;9.248;2023-03-17T07:07:42;6.57;;;4.50;;
15246;SDS011;7726;48.820;9.248;2023-03-17T07:10:10;5.23;;;4.00;;
15246;SDS011;7726;48.820;9.248;2023-03-17T07:12:41;5.93;;;3.80;;
15246;SDS011;7726;48.820;9.248;2023-03-17T07:15:10;5.73;;;3.93;;
15246;SDS011;7726;48.820;9.248;2023-03-17T07:17:37;4.73;;;3.50;;
15246;SDS011;7726;48.820;9.248;2023-03-17T07:20:05;4.03;;;3.53;;
15246;SDS011;7726;48.820;9.248;2023-03-17T07:22:33;5.07;;;4.07;;
15246;SDS011;7726;48.820;9.248;2023-03-17T07:25:00;5.20;;;4.40;;
15246;SDS011;7726;48.820;9.248;2023-03-17T07:27:28;4.80;;;3.97;;
15246;SDS011;7726;48.820;9.248;2023-03-17T07:29:55;6.17;;;3.83;;
15246;SDS011;7726;48.820;9.248;2023-03-17T07:32:25;5.93;;;3.83;;
15246;SDS011;7726;48.820;9.248;2023-03-17T07:34:53;4.00;;;3.63;;
15246;SDS011;7726;48.820;9.248;2023-03-17T07:37:21;6.07;;;4.20;;
15246;SDS011;7726;48.820;9.248;2023-03-17T07:39:48;5.33;;;3.97;;
15246;SDS011;7726;48.820;9.248;2023-03-17T07:42:16;5.30;;;3.33;;
15246;SDS011;7726;48.820;9.248;2023-03-17T07:44:43;5.87;;;4.03;;
15246;SDS011;7726;48.820;9.248;2023-03-17T07:47:10;5.90;;;4.00;;
15246;SDS011;7726;48.820;9.248;2023-03-17T07:49:40;7.20;;;3.70;;
15246;SDS011;7726;48.820;9.248;2023-03-17T07:52:07;3.87;;;3.30;;
15246;SDS011;7726;48.820;9.248;2023-03-17T07:54:35;6.23;;;3.67;;
15246;SDS011;7726;48.820;9.248;2023-03-17T07:57:03;3.70;;;3.30;;
15246;SDS011;7726;48.820;9.248;2023-03-17T07:59:30;3.83;;;3.17;;
15246;SDS011;7726;48.820;9.248;2023-03-17T08:01:58;3.40;;;3.07;;
15246;SDS011;7726;48.820;9.248;2023-03-17T08:04:25;4.13;;;2.97;;
15246;SDS011;7726;48.820;9.248;2023-03-17T08:06:54;5.65;;;3.40;;
15246;SDS011;7726;48.820;9.248;2023-03-17T08:09:21;4.37;;;3.50;;
15246;SDS011;7726;48.820;9.248;2023-03-17T08:11:48;6.70;;;3.70;;
15246;SDS011;7726;48.820;9.248;2023-03-17T08:14:16;3.17;;;2.87;;
15246;SDS011;7726;48.820;9.248;2023-03-17T08:16:43;5.70;;;3.07;;
15246;SDS011;7726;48.820;9.248;2023-03-17T08:19:10;4.40;;;2.93;;
15246;SDS011;7726;48.820;9.248;2023-03-17T08:21:37;4.05;;;3.05;;
15246;SDS011;7726;48.820;9.248;2023-03-17T08:24:06;3.37;;;2.97;;
15246;SDS011;7726;48.820;9.248;2023-03-17T08:26:33;3.17;;;2.70;;
15246;SDS011;7726;48.820;9.248;2023-03-17T08:29:01;3.80;;;3.40;;
15246;SDS011;7726;48.820;9.248;2023-03-17T08:31:28;3.60;;;3.10;;
15246;SDS011;7726;48.820;9.248;2023-03-17T08:33:57;3.90;;;3.43;;
15246;SDS011;7726;48.820;9.248;2023-03-17T08:36:26;4.30;;;3.28;;
15246;SDS011;7726;48.820;9.248;2023-03-17T08:38:54;5.57;;;3.00;;
15246;SDS011;7726;48.820;9.248;2023-03-17T08:41:22;3.73;;;2.90;;
15246;SDS011;7726;48.820;9.248;2023-03-17T08:43:50;4.20;;;3.23;;
15246;SDS011;7726;48.820;9.248;2023-03-17T08:46:19;5.40;;;3.23;;
15246;SDS011;7726;48.820;9.248;2023-03-17T08:48:48;3.10;;;2.80;;
15246;SDS011;7726;48.820;9.248;2023-03-17T08:51:16;3.57;;;2.80;;
15246;SDS011;7726;48.820;9.248;2023-03-17T08:53:44;3.93;;;2.80;;
15246;SDS011;7726;48.820;9.248;2023-03-17T08:56:11;4.38;;;3.20;;
15246;SDS011;7726;48.820;9.248;2023-03-17T08:58:40;3.77;;;2.40;;
15246;SDS011;7726;48.820;9.248;2023-03-17T09:01:08;3.13;;;2.80;;
15246;SDS011;7726;48.820;9.248;2023-03-17T09:03:36;3.77;;;2.83;;
15246;SDS011;7726;48.820;9.248;2023-03-17T09:06:03;4.65;;;3.72;;
15246;SDS011;7726;48.820;9.248;2023-03-17T09:08:31;4.78;;;4.28;;
15246;SDS011;7726;48.820;9.248;2023-03-17T09:10:58;2.57;;;2.37;;
15246;SDS011;7726;48.820;9.248;2023-03-17T09:13:27;3.47;;;2.95;;
15246;SDS011;7726;48.820;9.248;2023-03-17T09:15:55;4.60;;;3.55;;
15246;SDS011;7726;48.820;9.248;2023-03-17T09:18:23;2.60;;;2.40;;
15246;SDS011;7726;48.820;9.248;2023-03-17T09:20:51;3.83;;;2.30;;
15246;SDS011;7726;48.820;9.248;2023-03-17T09:23:18;2.70;;;2.47;;
15246;SDS011;7726;48.820;9.248;2023-03-17T09:25:47;4.22;;;2.50;;
15246;SDS011;7726;48.820;9.248;2023-03-17T09:28:14;3.13;;;2.35;;
15246;SDS011;7726;48.820;9.248;2023-03-17T09:30:43;2.50;;;2.30;;
15246;SDS011;7726;48.820;9.248;2023-03-17T09:33:13;2.22;;;1.80;;
15246;SDS011;7726;48.820;9.248;2023-03-17T09:35:41;4.10;;;1.90;;
15246;SDS011;7726;48.820;9.248;2023-03-17T09:38:09;3.30;;;2.03;;
15246;SDS011;7726;48.820;9.248;2023-03-17T09:40:38;2.03;;;1.77;;
15246;SDS011;7726;48.820;9.248;2023-03-17T09:43:11;1.60;;;1.50;;
15246;SDS011;7726;48.820;9.248;2023-03-17T09:45:42;1.98;;;1.70;;
15246;SDS011;7726;48.820;9.248;2023-03-17T09:51:00;2.88;;;2.05;;
15246;SDS011;7726;48.820;9.248;2023-03-17T09:53:30;2.35;;;1.90;;
15246;SDS011;7726;48.820;9.248;2023-03-17T09:56:01;3.15;;;1.73;;
15246;SDS011;7726;48.820;9.248;2023-03-17T09:58:31;1.92;;;1.60;;
15246;SDS011;7726;48.820;9.248;2023-03-17T10:00:58;1.48;;;1.38;;
15246;SDS011;7726;48.820;9.248;2023-03-17T10:03:26;1.08;;;1.08;;
15246;SDS011;7726;48.820;9.248;2023-03-17T10:05:53;2.95;;;1.40;;
15246;SDS011;7726;48.820;9.248;2023-03-17T10:08:26;1.30;;;1.20;;
15246;SDS011;7726;48.820;9.248;2023-03-17T10:10:58;2.60;;;1.60;;
15246;SDS011;7726;48.820;9.248;2023-03-17T10:13:27;2.42;;;1.73;;
15246;SDS011;7726;48.820;9.248;2023-03-17T10:16:04;1.40;;;1.30;;
15246;SDS011;7726;48.820;9.248;2023-03-17T10:18:35;2.70;;;1.40;;
15246;SDS011;7726;48.820;9.248;2023-03-17T10:21:05;1.55;;;1.40;;
15246;SDS011;7726;48.820;9.248;2023-03-17T10:23:35;1.40;;;1.30;;
15246;SDS011;7726;48.820;9.248;2023-03-17T10:26:04;2.08;;;1.58;;
15246;SDS011;7726;48.820;9.248;2023-03-17T10:28:33;1.30;;;1.20;;
15246;SDS011;7726;48.820;9.248;2023-03-17T10:31:08;1.73;;;1.25;;
15246;SDS011;7726;48.820;9.248;2023-03-17T10:33:37;1.40;;;1.30;;
15246;SDS011;7726;48.820;9.248;2023-03-17T10:36:07;1.33;;;1.23;;
15246;SDS011;7726;48.820;9.248;2023-03-17T10:38:36;1.58;;;1.48;;
15246;SDS011;7726;48.820;9.248;2023-03-17T10:41:06;1.40;;;1.30;;
15246;SDS011;7726;48.820;9.248;2023-03-17T10:43:36;1.58;;;1.40;;
15246;SDS011;7726;48.820;9.248;2023-03-17T10:46:06;1.60;;;1.10;;
15246;SDS011;7726;48.820;9.248;2023-03-17T10:48:34;1.75;;;1.30;;
15246;SDS011;7726;48.820;9.248;2023-03-17T10:51:04;1.20;;;1.10;;
15246;SDS011;7726;48.820;9.248;2023-03-17T10:53:36;1.50;;;1.20;;
15246;SDS011;7726;48.820;9.248;2023-03-17T10:56:08;2.17;;;1.00;;
15246;SDS011;7726;48.820;9.248;2023-03-17T10:58:36;0.98;;;0.98;;
15246;SDS011;7726;48.820;9.248;2023-03-17T11:01:05;1.13;;;1.08;;
15246;SDS011;7726;48.820;9.248;2023-03-17T11:03:34;1.88;;;1.10;;
15246;SDS011;7726;48.820;9.248;2023-03-17T11:06:04;3.60;;;1.40;;
15246;SDS011;7726;48.820;9.248;2023-03-17T11:08:32;1.50;;;1.42;;
15246;SDS011;7726;48.820;9.248;2023-03-17T11:11:05;2.25;;;1.50;;
15246;SDS011;7726;48.820;9.248;2023-03-17T11:13:32;4.47;;;1.40;;
15246;SDS011;7726;48.820;9.248;2023-03-17T11:16:05;1.95;;;1.40;;
15246;SDS011;7726;48.820;9.248;2023-03-17T11:18:35;1.30;;;1.20;;
15246;SDS011;7726;48.820;9.248;2023-03-17T11:21:02;2.05;;;1.25;;
15246;SDS011;7726;48.820;9.248;2023-03-17T11:23:43;1.42;;;1.27;;
15246;SDS011;7726;48.820;9.248;2023-03-17T11:26:15;4.10;;;1.50;;
15246;SDS011;7726;48.820;9.248;2023-03-17T11:28:48;2.47;;;1.58;;
15246;SDS011;7726;48.820;9.248;2023-03-17T11:31:17;4.13;;;1.52;;
15246;SDS011;7726;48.820;9.248;2023-03-17T11:33:47;1.60;;;1.38;;
15246;SDS011;7726;48.820;9.248;2023-03-17T11:36:25;1.35;;;1.30;;
15246;SDS011;7726;48.820;9.248;2023-03-17T11:38:58;2.35;;;1.40;;
15246;SDS011;7726;48.820;9.248;2023-03-17T11:41:41;1.42;;;1.33;;
15246;SDS011;7726;48.820;9.248;2023-03-17T11:46:54;1.20;;;1.10;;
15246;SDS011;7726;48.820;9.248;2023-03-17T11:49:23;1.55;;;1.45;;
15246;SDS011;7726;48.820;9.248;2023-03-17T11:51:55;1.40;;;1.30;;
15246;SDS011;7726;48.820;9.248;2023-03-17T11:54:26;2.08;;;1.23;;
15246;SDS011;7726;48.820;9.248;2023-03-17T11:56:59;1.73;;;1.30;;
15246;SDS011;7726;48.820;9.248;2023-03-17T11:59:28;1.67;;;1.42;;
15246;SDS011;7726;48.820;9.248;2023-03-17T12:01:57;1.85;;;1.15;;
15246;SDS011;7726;48.820;9.248;2023-03-17T12:04:29;2.55;;;1.27;;
15246;SDS011;7726;48.820;9.248;2023-03-17T12:07:00;1.77;;;1.15;;
15246;SDS011;7726;48.820;9.248;2023-03-17T12:09:34;1.30;;;1.20;;
15246;SDS011;7726;48.820;9.248;2023-03-17T12:12:04;2.45;;;1.50;;
15246;SDS011;7726;48.820;9.248;2023-03-17T12:14:34;4.07;;;1.45;;
15246;SDS011;7726;48.820;9.248;2023-03-17T12:17:03;3.28;;;1.25;;
15246;SDS011;7726;48.820;9.248;2023-03-17T12:19:35;2.65;;;1.20;;
15246;SDS011;7726;48.820;9.248;2023-03-17T12:22:05;1.20;;;1.10;;
15246;SDS011;7726;48.820;9.248;2023-03-17T12:24:34;4.63;;;1.42;;
15246;SDS011;7726;48.820;9.248;2023-03-17T12:27:03;1.80;;;1.27;;
15246;SDS011;7726;48.820;9.248;2023-03-17T12:29:38;1.42;;;1.33;;
15246;SDS011;7726;48.820;9.248;2023-03-17T12:32:09;1.38;;;1.27;;
15246;SDS011;7726;48.820;9.248;2023-03-17T12:34:39;3.05;;;1.45;;
15246;SDS011;7726;48.820;9.248;2023-03-17T12:37:10;2.85;;;1.10;;
15246;SDS011;7726;48.820;9.248;2023-03-17T12:39:38;1.08;;;1.08;;
15246;SDS011;7726;48.820;9.248;2023-03-17T12:42:14;1.17;;;0.93;;
15246;SDS011;7726;48.820;9.248;2023-03-17T12:44:53;1.10;;;0.93;;
15246;SDS011;7726;48.820;9.248;2023-03-17T12:47:27;1.30;;;1.20;;
15246;SDS011;7726;48.820;9.248;2023-03-17T12:50:11;1.42;;;0.90;;
15246;SDS011;7726;48.820;9.248;2023-03-17T12:52:52;1.25;;;1.00;;
15246;SDS011;7726;48.820;9.248;2023-03-17T12:55:23;1.15;;;0.95;;
15246;SDS011;7726;48.820;9.248;2023-03-17T12:57:56;1.30;;;1.05;;
15246;SDS011;7726;48.820;9.248;2023-03-17T13:00:27;2.28;;;1.38;;
15246;SDS011;7726;48.820;9.248;2023-03-17T13:03:05;2.05;;;1.20;;
15246;SDS011;7726;48.820;9.248;2023-03-17T13:05:33;1.75;;;1.00;;
15246;SDS011;7726;48.820;9.248;2023-03-17T13:08:03;1.70;;;0.80;;
15246;SDS011;7726;48.820;9.248;2023-03-17T13:10:36;1.23;;;1.05;;
15246;SDS011;7726;48.820;9.248;2023-03-17T13:13:06;1.23;;;1.00;;
15246;SDS011;7726;48.820;9.248;2023-03-17T13:15:48;1.63;;;1.00;;
15246;SDS011;7726;48.820;9.248;2023-03-17T13:21:08;0.80;;;0.80;;
15246;SDS011;7726;48.820;9.248;2023-03-17T13:23:36;1.20;;;0.90;;
15246;SDS011;7726;48.820;9.248;2023-03-17T13:26:05;1.58;;;0.90;;
15246;SDS011;7726;48.820;9.248;2023-03-17T13:28:39;2.88;;;0.88;;
15246;SDS011;7726;48.820;9.248;2023-03-17T13:31:09;1.05;;;0.95;;
15246;SDS011;7726;48.820;9.248;2023-03-17T13:33:40;0.70;;;0.70;;
15246;SDS011;7726;48.820;9.248;2023-03-17T13:36:18;1.33;;;1.00;;
15246;SDS011;7726;48.820;9.248;2023-03-17T13:41:36;2.42;;;0.98;;
15246;SDS011;7726;48.820;9.248;2023-03-17T13:44:14;2.00;;;1.30;;
15246;SDS011;7726;48.820;9.248;2023-03-17T13:46:47;2.40;;;1.15;;
15246;SDS011;7726;48.820;9.248;2023-03-17T13:49:20;2.17;;;1.02;;
15246;SDS011;7726;48.820;9.248;2023-03-17T13:51:49;3.40;;;1.25;;
15246;SDS011;7726;48.820;9.248;2023-03-17T13:54:21;2.33;;;1.48;;
15246;SDS011;7726;48.820;9.248;2023-03-17T13:56:55;1.85;;;1.05;;
15246;SDS011;7726;48.820;9.248;2023-03-17T13:59:27;1.45;;;1.10;;
15246;SDS011;7726;48.820;9.248;2023-03-17T14:02:00;1.40;;;1.02;;
15246;SDS011;7726;48.820;9.248;2023-03-17T14:04:30;6.05;;;1.10;;
15246;SDS011;7726;48.820;9.248;2023-03-17T14:07:03;2.17;;;1.00;;
15246;SDS011;7726;48.820;9.248;2023-03-17T14:09:32;2.22;;;1.42;;
15246;SDS011;7726;48.820;9.248;2023-03-17T14:12:02;1.33;;;0.95;;
15246;SDS011;7726;48.820;9.248;2023-03-17T14:14:32;1.95;;;0.85;;
15246;SDS011;7726;48.820;9.248;2023-03-17T14:17:07;3.20;;;1.10;;
15246;SDS011;7726;48.820;9.248;2023-03-17T14:19:36;1.02;;;0.98;;
15246;SDS011;7726;48.820;9.248;2023-03-17T14:22:17;0.90;;;0.88;;
15246;SDS011;7726;48.820;9.248;2023-03-17T14:24:44;2.78;;;1.20;;
15246;SDS011;7726;48.820;9.248;2023-03-17T14:27:11;1.05;;;1.05;;
15246;SDS011;7726;48.820;9.248;2023-03-17T14:29:40;1.63;;;1.25;;
15246;SDS011;7726;48.820;9.248;2023-03-17T14:32:11;3.28;;;1.10;;
15246;SDS011;7726;48.820;9.248;2023-03-17T14:34:40;1.08;;;0.98;;
15246;SDS011;7726;48.820;9.248;2023-03-17T14:37:08;1.67;;;1.23;;
15246;SDS011;7726;48.820;9.248;2023-03-17T14:39:38;2.22;;;1.20;;
15246;SDS011;7726;48.820;9.248;2023-03-17T14:42:09;1.23;;;1.02;;
15246;SDS011;7726;48.820;9.248;2023-03-17T14:44:37;1.10;;;1.00;;
15246;SDS011;7726;48.820;9.248;2023-03-17T14:47:05;1.67;;;1.20;;
15246;SDS011;7726;48.820;9.248;2023-03-17T14:49:34;1.38;;;1.00;;
15246;SDS011;7726;48.820;9.248;2023-03-17T14:52:02;1.20;;;0.93;;
15246;SDS011;7726;48.820;9.248;2023-03-17T14:54:29;3.75;;;1.15;;
15246;SDS011;7726;48.820;9.248;2023-03-17T14:56:58;1.08;;;0.98;;
15246;SDS011;7726;48.820;9.248;2023-03-17T14:59:28;1.65;;;1.10;;
15246;SDS011;7726;48.820;9.248;2023-03-17T15:01:57;2.10;;;1.00;;
15246;SDS011;7726;48.820;9.248;2023-03-17T15:04:25;1.88;;;1.10;;
15246;SDS011;7726;48.820;9.248;2023-03-17T15:06:55;1.83;;;1.23;;
15246;SDS011;7726;48.820;9.248;2023-03-17T15:09:23;1.70;;;1.17;;
15246;SDS011;7726;48.820;9.248;2023-03-17T15:11:52;1.55;;;1.30;;
15246;SDS011;7726;48.820;9.248;2023-03-17T15:14:20;2.40;;;1.13;;
15246;SDS011;7726;48.820;9.248;2023-03-17T15:16:50;1.75;;;1.10;;
15246;SDS011;7726;48.820;9.248;2023-03-17T15:19:22;1.50;;;1.40;;
15246;SDS011;7726;48.820;9.248;2023-03-17T15:21:50;2.45;;;1.30;;
15246;SDS011;7726;48.820;9.248;2023-03-17T15:27:04;1.90;;;1.30;;